PWSweather.com
Personal Weather Stations
Station Observations
THEQULMNR
A Mountain, Tucson, AZ 85713

A MountainTucson, AZ 85713

Lat: 32.205986, Lon: -111.001395

Elevation: 2440

Station Type: Netatmo

High Low Average
Temperature 88.0°F31.1°C 52.2°F11.2°C 73.5°F23.1°C
Dew Point 52.3°F11.3°C 34.2°F1.2°C 43.7°F6.5°C
Winds - - - N N
Wind Gusts -- -- --
Humidity 56% 14% 30%
Pressure 30.20 in1022.7 mb 30.05 in1017.6 mb -
Precipitation 0.00 in0.0 mm - -
Hour Temp Dew Point Humidity Winds Wind Gusts Pressure Precip Precip Rate Daily Precip Total
12:00 AM 63.3°F17.4°C 39.0°F3.9°C 40% - N N -- 30.16 in1021.3 mb 0.00 in0.0 mm 0.00 in0.0 mm 0.00 in0.0 mm
12:21 AM 62.8°F17.1°C 39.0°F3.9°C 41% - N N -- 30.16 in1021.3 mb 0.00 in0.0 mm 0.00 in0.0 mm 0.00 in0.0 mm
12:40 AM 61.9°F16.6°C 38.1°F3.4°C 41% - N N -- 30.16 in1021.3 mb 0.00 in0.0 mm 0.00 in0.0 mm 0.00 in0.0 mm
01:01 AM 60.8°F16.0°C 37.6°F3.1°C 42% - N N -- 30.16 in1021.3 mb 0.00 in0.0 mm 0.00 in0.0 mm 0.00 in0.0 mm
01:21 AM 60.1°F15.6°C 36.9°F2.7°C 42% - N N -- 30.16 in1021.3 mb 0.00 in0.0 mm 0.00 in0.0 mm 0.00 in0.0 mm
01:41 AM 59.2°F15.1°C 36.5°F2.5°C 43% - N N -- 30.15 in1021.0 mb 0.00 in0.0 mm 0.00 in0.0 mm 0.00 in0.0 mm
02:01 AM 58.3°F14.6°C 36.1°F2.3°C 44% - N N -- 30.14 in1020.7 mb 0.00 in0.0 mm 0.00 in0.0 mm 0.00 in0.0 mm
02:19 AM 57.7°F14.3°C 36.0°F2.2°C 45% - N N -- 30.14 in1020.7 mb 0.00 in0.0 mm 0.00 in0.0 mm 0.00 in0.0 mm
02:38 AM 57.2°F14.0°C 35.4°F1.9°C 45% - N N -- 30.14 in1020.7 mb 0.00 in0.0 mm 0.00 in0.0 mm 0.00 in0.0 mm
02:59 AM 56.7°F13.7°C 35.8°F2.1°C 47% - N N -- 30.14 in1020.7 mb 0.00 in0.0 mm 0.00 in0.0 mm 0.00 in0.0 mm
03:18 AM 55.8°F13.2°C 35.4°F1.9°C 48% - N N -- 30.14 in1020.7 mb 0.00 in0.0 mm 0.00 in0.0 mm 0.00 in0.0 mm
03:39 AM 54.9°F12.7°C 34.9°F1.6°C 49% - N N -- 30.14 in1020.7 mb 0.00 in0.0 mm 0.00 in0.0 mm 0.00 in0.0 mm
03:59 AM 54.3°F12.4°C 34.5°F1.4°C 49% - N N -- 30.14 in1020.7 mb 0.00 in0.0 mm 0.00 in0.0 mm 0.00 in0.0 mm
04:19 AM 53.8°F12.1°C 34.3°F1.3°C 50% - N N -- 30.13 in1020.3 mb 0.00 in0.0 mm 0.00 in0.0 mm 0.00 in0.0 mm
04:40 AM 53.4°F11.9°C 34.3°F1.3°C 51% - N N -- 30.14 in1020.7 mb 0.00 in0.0 mm 0.00 in0.0 mm 0.00 in0.0 mm
04:49 AM 53.2°F11.8°C 34.2°F1.2°C 51% - N N -- 30.14 in1020.7 mb 0.00 in0.0 mm 0.00 in0.0 mm 0.00 in0.0 mm
04:59 AM 53.1°F11.7°C 34.5°F1.4°C 52% - N N -- 30.14 in1020.7 mb 0.00 in0.0 mm 0.00 in0.0 mm 0.00 in0.0 mm
05:40 AM 52.2°F11.2°C 34.3°F1.3°C 54% - N N -- 30.16 in1021.3 mb 0.00 in0.0 mm 0.00 in0.0 mm 0.00 in0.0 mm
06:00 AM 52.3°F11.3°C 34.9°F1.6°C 55% - N N -- 30.16 in1021.3 mb 0.00 in0.0 mm 0.00 in0.0 mm 0.00 in0.0 mm
06:20 AM 52.9°F11.6°C 35.8°F2.1°C 56% - N N -- 30.17 in1021.7 mb 0.00 in0.0 mm 0.00 in0.0 mm 0.00 in0.0 mm
06:40 AM 55.4°F13.0°C 37.8°F3.2°C 55% - N N -- 30.18 in1022.0 mb 0.00 in0.0 mm 0.00 in0.0 mm 0.00 in0.0 mm
07:01 AM 58.6°F14.8°C 39.2°F4.0°C 51% - N N -- 30.19 in1022.4 mb 0.00 in0.0 mm 0.00 in0.0 mm 0.00 in0.0 mm
07:21 AM 61.7°F16.5°C 40.8°F4.9°C 48% - N N -- 30.20 in1022.7 mb 0.00 in0.0 mm 0.00 in0.0 mm 0.00 in0.0 mm
07:41 AM 64.8°F18.2°C 42.1°F5.6°C 44% - N N -- 30.20 in1022.7 mb 0.00 in0.0 mm 0.00 in0.0 mm 0.00 in0.0 mm
08:01 AM 67.8°F19.9°C 43.5°F6.4°C 41% - N N -- 30.20 in1022.7 mb 0.00 in0.0 mm 0.00 in0.0 mm 0.00 in0.0 mm
08:21 AM 70.9°F21.6°C 45.1°F7.3°C 38% - N N -- 30.20 in1022.7 mb 0.00 in0.0 mm 0.00 in0.0 mm 0.00 in0.0 mm
08:41 AM 74.1°F23.4°C 47.1°F8.4°C 36% - N N -- 30.20 in1022.7 mb 0.00 in0.0 mm 0.00 in0.0 mm 0.00 in0.0 mm
09:02 AM 77.0°F25.0°C 48.9°F9.4°C 34% - N N -- 30.20 in1022.7 mb 0.00 in0.0 mm 0.00 in0.0 mm 0.00 in0.0 mm
09:22 AM 79.3°F26.3°C 49.3°F9.6°C 30% - N N -- 30.20 in1022.7 mb 0.00 in0.0 mm 0.00 in0.0 mm 0.00 in0.0 mm
09:42 AM 81.3°F27.4°C 50.2°F10.1°C 28% - N N -- 30.20 in1022.7 mb 0.00 in0.0 mm 0.00 in0.0 mm 0.00 in0.0 mm
10:02 AM 82.8°F28.2°C 50.5°F10.3°C 26% - N N -- 30.20 in1022.7 mb 0.00 in0.0 mm 0.00 in0.0 mm 0.00 in0.0 mm
10:22 AM 83.1°F28.4°C 50.4°F10.2°C 25% - N N -- 30.20 in1022.7 mb 0.00 in0.0 mm 0.00 in0.0 mm 0.00 in0.0 mm
10:43 AM 84.0°F28.9°C 50.4°F10.2°C 23% - N N -- 30.20 in1022.7 mb 0.00 in0.0 mm 0.00 in0.0 mm 0.00 in0.0 mm
11:02 AM 84.2°F29.0°C 50.4°F10.2°C 23% - N N -- 30.20 in1022.7 mb 0.00 in0.0 mm 0.00 in0.0 mm 0.00 in0.0 mm
11:23 AM 84.6°F29.2°C 50.4°F10.2°C 22% - N N -- 30.19 in1022.4 mb 0.00 in0.0 mm 0.00 in0.0 mm 0.00 in0.0 mm
11:43 AM 85.6°F29.8°C 50.0°F10.0°C 19% - N N -- 30.18 in1022.0 mb 0.00 in0.0 mm 0.00 in0.0 mm 0.00 in0.0 mm
12:03 PM 86.4°F30.2°C 51.1°F10.6°C 20% - N N -- 30.17 in1021.7 mb 0.00 in0.0 mm 0.00 in0.0 mm 0.00 in0.0 mm
12:24 PM 87.8°F31.0°C 52.3°F11.3°C 20% - N N -- 30.16 in1021.3 mb 0.00 in0.0 mm 0.00 in0.0 mm 0.00 in0.0 mm
12:43 PM 88.0°F31.1°C 51.1°F10.6°C 17% - N N -- 30.16 in1021.3 mb 0.00 in0.0 mm 0.00 in0.0 mm 0.00 in0.0 mm
01:04 PM 87.1°F30.6°C 50.4°F10.2°C 17% - N N -- 30.15 in1021.0 mb 0.00 in0.0 mm 0.00 in0.0 mm 0.00 in0.0 mm
01:24 PM 86.9°F30.5°C 49.6°F9.8°C 16% - N N -- 30.14 in1020.7 mb 0.00 in0.0 mm 0.00 in0.0 mm 0.00 in0.0 mm
01:44 PM 87.1°F30.6°C 49.8°F9.9°C 16% - N N -- 30.13 in1020.3 mb 0.00 in0.0 mm 0.00 in0.0 mm 0.00 in0.0 mm
02:04 PM 86.7°F30.4°C 49.5°F9.7°C 16% - N N -- 30.11 in1019.6 mb 0.00 in0.0 mm 0.00 in0.0 mm 0.00 in0.0 mm
02:24 PM 86.4°F30.2°C 49.3°F9.6°C 16% - N N -- 30.10 in1019.3 mb 0.00 in0.0 mm 0.00 in0.0 mm 0.00 in0.0 mm
02:45 PM 86.5°F30.3°C 48.9°F9.4°C 15% - N N -- 30.09 in1019.0 mb 0.00 in0.0 mm 0.00 in0.0 mm 0.00 in0.0 mm
03:25 PM 86.7°F30.4°C 49.1°F9.5°C 15% - N N -- 30.08 in1018.6 mb 0.00 in0.0 mm 0.00 in0.0 mm 0.00 in0.0 mm
03:45 PM 86.9°F30.5°C 49.3°F9.6°C 15% - N N -- 30.07 in1018.3 mb 0.00 in0.0 mm 0.00 in0.0 mm 0.00 in0.0 mm
04:05 PM 86.7°F30.4°C 49.1°F9.5°C 15% - N N -- 30.06 in1017.9 mb 0.00 in0.0 mm 0.00 in0.0 mm 0.00 in0.0 mm
04:25 PM 86.9°F30.5°C 49.3°F9.6°C 15% - N N -- 30.06 in1017.9 mb 0.00 in0.0 mm 0.00 in0.0 mm 0.00 in0.0 mm
04:46 PM 86.9°F30.5°C 49.3°F9.6°C 15% - N N -- 30.06 in1017.9 mb 0.00 in0.0 mm 0.00 in0.0 mm 0.00 in0.0 mm
05:06 PM 86.5°F30.3°C 48.9°F9.4°C 15% - N N -- 30.05 in1017.6 mb 0.00 in0.0 mm 0.00 in0.0 mm 0.00 in0.0 mm
05:26 PM 86.0°F30.0°C 48.4°F9.1°C 15% - N N -- 30.05 in1017.6 mb 0.00 in0.0 mm 0.00 in0.0 mm 0.00 in0.0 mm
05:46 PM 85.6°F29.8°C 48.2°F9.0°C 15% - N N -- 30.05 in1017.6 mb 0.00 in0.0 mm 0.00 in0.0 mm 0.00 in0.0 mm
06:06 PM 85.1°F29.5°C 47.7°F8.7°C 15% - N N -- 30.05 in1017.6 mb 0.00 in0.0 mm 0.00 in0.0 mm 0.00 in0.0 mm
06:27 PM 84.4°F29.1°C 46.6°F8.1°C 14% - N N -- 30.05 in1017.6 mb 0.00 in0.0 mm 0.00 in0.0 mm 0.00 in0.0 mm
06:46 PM 83.3°F28.5°C 46.0°F7.8°C 15% - N N -- 30.05 in1017.6 mb 0.00 in0.0 mm 0.00 in0.0 mm 0.00 in0.0 mm
07:07 PM 82.0°F27.8°C 45.5°F7.5°C 16% - N N -- 30.06 in1017.9 mb 0.00 in0.0 mm 0.00 in0.0 mm 0.00 in0.0 mm
07:27 PM 81.3°F27.4°C 45.7°F7.6°C 18% - N N -- 30.06 in1017.9 mb 0.00 in0.0 mm 0.00 in0.0 mm 0.00 in0.0 mm
07:47 PM 80.4°F26.9°C 45.3°F7.4°C 19% - N N -- 30.06 in1017.9 mb 0.00 in0.0 mm 0.00 in0.0 mm 0.00 in0.0 mm
08:07 PM 79.7°F26.5°C 45.1°F7.3°C 20% - N N -- 30.07 in1018.3 mb 0.00 in0.0 mm 0.00 in0.0 mm 0.00 in0.0 mm
08:17 PM 79.3°F26.3°C 44.8°F7.1°C 20% - N N -- 30.08 in1018.6 mb 0.00 in0.0 mm 0.00 in0.0 mm 0.00 in0.0 mm
08:37 PM 78.8°F26.0°C 44.4°F6.9°C 20% - N N -- 30.08 in1018.6 mb 0.00 in0.0 mm 0.00 in0.0 mm 0.00 in0.0 mm
08:57 PM 78.3°F25.7°C 44.4°F6.9°C 21% - N N -- 30.09 in1019.0 mb 0.00 in0.0 mm 0.00 in0.0 mm 0.00 in0.0 mm
09:18 PM 77.7°F25.4°C 43.9°F6.6°C 21% - N N -- 30.09 in1019.0 mb 0.00 in0.0 mm 0.00 in0.0 mm 0.00 in0.0 mm
09:38 PM 77.5°F25.3°C 44.2°F6.8°C 22% - N N -- 30.09 in1019.0 mb 0.00 in0.0 mm 0.00 in0.0 mm 0.00 in0.0 mm
09:58 PM 77.2°F25.1°C 43.9°F6.6°C 22% - N N -- 30.09 in1019.0 mb 0.00 in0.0 mm 0.00 in0.0 mm 0.00 in0.0 mm
10:18 PM 76.6°F24.8°C 43.9°F6.6°C 23% - N N -- 30.09 in1019.0 mb 0.00 in0.0 mm 0.00 in0.0 mm 0.00 in0.0 mm
10:38 PM 76.1°F24.5°C 43.3°F6.3°C 23% - N N -- 30.10 in1019.3 mb 0.00 in0.0 mm 0.00 in0.0 mm 0.00 in0.0 mm
10:58 PM 75.7°F24.3°C 43.5°F6.4°C 24% - N N -- 30.10 in1019.3 mb 0.00 in0.0 mm 0.00 in0.0 mm 0.00 in0.0 mm
11:19 PM 74.3°F23.5°C 42.3°F5.7°C 24% - N N -- 30.11 in1019.6 mb 0.00 in0.0 mm 0.00 in0.0 mm 0.00 in0.0 mm
11:39 PM 71.8°F22.1°C 40.5°F4.7°C 25% - N N -- 30.11 in1019.6 mb 0.00 in0.0 mm 0.00 in0.0 mm 0.00 in0.0 mm
11:59 PM 70.2°F21.2°C 39.4°F4.1°C 26% - N N -- 30.10 in1019.3 mb 0.00 in0.0 mm 0.00 in0.0 mm 0.00 in0.0 mm